Time;durP1;ratioP1;P1;durP2;ratioP2;P2;SDS_P1;SDS_P2;PMS_P1;PMS_P2;Temp;Humidity;BMP_temperature;BMP_pressure;BME280_temperature;BME280_humidity;BME280_pressure;Samples;Min_cycle;Max_cycle;Signal;HPM_P1;HPM_P2
2023/06/16 00:00:37;;;;;;;4.38;3.63;;;;;;;;;;4975118;28;20034;-77
2023/06/16 00:03:02;;;;;;;7.45;3.90;;;;;;;;;;4957747;28;20069;-77
2023/06/16 00:05:28;;;;;;;6.78;3.75;;;;;;;;;;4974975;28;20102;-77
2023/06/16 00:07:58;;;;;;;5.93;3.60;;;;;;;;;;4957682;28;20027;-77
2023/06/16 00:10:23;;;;;;;4.63;3.53;;;;;;;;;;4957666;28;20434;-77
2023/06/16 00:12:48;;;;;;;4.43;3.47;;;;;;;;;;4975165;28;20023;-77
2023/06/16 00:15:14;;;;;;;6.60;3.80;;;;;;;;;;4974150;28;20253;-77
2023/06/16 00:17:44;;;;;;;6.23;3.87;;;;;;;;;;4957478;28;20767;-77
2023/06/16 00:20:11;;;;;;;6.63;3.75;;;;;;;;;;4974853;28;20689;-77
2023/06/16 00:22:36;;;;;;;6.68;3.95;;;;;;;;;;4974946;28;20046;-75
2023/06/16 00:25:01;;;;;;;6.03;3.83;;;;;;;;;;4975231;28;20430;-76
2023/06/16 00:27:26;;;;;;;5.57;3.65;;;;;;;;;;4957513;28;20344;-76
2023/06/16 00:29:51;;;;;;;5.00;3.63;;;;;;;;;;4974782;28;20093;-76
2023/06/16 00:32:17;;;;;;;5.07;3.73;;;;;;;;;;4957943;28;20303;-77
2023/06/16 00:34:42;;;;;;;4.13;3.57;;;;;;;;;;4957917;28;20265;-75
2023/06/16 00:37:08;;;;;;;6.82;4.18;;;;;;;;;;4974912;28;20318;-78
2023/06/16 00:39:33;;;;;;;4.85;3.70;;;;;;;;;;4974521;28;20117;-77
2023/06/16 00:41:58;;;;;;;5.50;3.80;;;;;;;;;;4974848;28;20030;-77
2023/06/16 00:44:23;;;;;;;6.33;3.63;;;;;;;;;;4973090;28;20283;-77
2023/06/16 00:46:49;;;;;;;4.13;3.60;;;;;;;;;;4973188;28;20787;-77
2023/06/16 00:49:15;;;;;;;7.25;4.03;;;;;;;;;;4974386;28;20268;-77
2023/06/16 00:51:40;;;;;;;8.38;4.40;;;;;;;;;;4957132;28;20019;-77
2023/06/16 00:54:06;;;;;;;6.15;4.05;;;;;;;;;;4957295;28;20019;-77
2023/06/16 00:56:33;;;;;;;5.82;3.90;;;;;;;;;;4974362;28;20031;-76
2023/06/16 00:58:58;;;;;;;7.18;3.92;;;;;;;;;;4974481;28;20061;-77
2023/06/16 01:01:28;;;;;;;5.95;3.85;;;;;;;;;;4974346;28;20517;-76
2023/06/16 01:03:53;;;;;;;7.68;4.15;;;;;;;;;;4972937;28;20027;-77
2023/06/16 01:06:30;;;;;;;8.57;4.45;;;;;;;;;;4974453;28;20030;-77
2023/06/16 01:09:06;;;;;;;6.50;4.03;;;;;;;;;;4974797;28;20081;-77
2023/06/16 01:11:47;;;;;;;9.02;4.20;;;;;;;;;;4973250;28;20025;-77
2023/06/16 01:14:19;;;;;;;4.68;3.63;;;;;;;;;;4974538;28;20034;-77
2023/06/16 01:16:46;;;;;;;6.22;4.00;;;;;;;;;;4977132;28;20030;-78
2023/06/16 01:19:22;;;;;;;5.32;3.45;;;;;;;;;;4975310;28;20027;-77
2023/06/16 01:21:54;;;;;;;5.28;3.78;;;;;;;;;;4958608;28;20122;-77
2023/06/16 01:24:24;;;;;;;7.32;4.15;;;;;;;;;;4958616;28;20023;-77
2023/06/16 01:26:52;;;;;;;5.15;3.50;;;;;;;;;;4978355;28;20058;-78
2023/06/16 01:29:21;;;;;;;5.57;3.80;;;;;;;;;;4982978;28;20034;-77
2023/06/16 01:31:48;;;;;;;5.28;3.75;;;;;;;;;;4981888;28;20062;-78
2023/06/16 01:34:14;;;;;;;6.68;3.75;;;;;;;;;;4980396;28;20030;-77
2023/06/16 01:36:41;;;;;;;7.40;4.00;;;;;;;;;;4977751;28;20034;-77
2023/06/16 01:39:08;;;;;;;6.18;3.58;;;;;;;;;;4977730;28;20113;-77
2023/06/16 01:41:35;;;;;;;5.85;3.90;;;;;;;;;;4977795;28;20107;-78
2023/06/16 01:44:02;;;;;;;7.25;3.78;;;;;;;;;;4979220;28;20445;-77
2023/06/16 01:46:29;;;;;;;5.82;3.80;;;;;;;;;;4978861;28;20033;-78
2023/06/16 01:48:54;;;;;;;5.25;3.80;;;;;;;;;;4980270;28;20085;-78
2023/06/16 01:51:20;;;;;;;6.97;3.70;;;;;;;;;;4979927;28;20022;-78
2023/06/16 01:53:46;;;;;;;4.45;3.45;;;;;;;;;;4960131;28;20019;-77
2023/06/16 01:56:11;;;;;;;5.80;4.05;;;;;;;;;;4978876;28;20027;-78
2023/06/16 01:58:38;;;;;;;8.07;3.83;;;;;;;;;;4980087;28;20077;-77
2023/06/16 02:01:28;;;;;;;8.43;4.00;;;;;;;;;;4960842;28;20085;-76
2023/06/16 02:03:59;;;;;;;8.10;3.80;;;;;;;;;;4978374;28;20027;-78
2023/06/16 02:06:37;;;;;;;5.35;3.92;;;;;;;;;;4975997;28;20521;-77
2023/06/16 02:09:05;;;;;;;8.88;4.05;;;;;;;;;;4979944;28;20065;-78
2023/06/16 02:11:31;;;;;;;7.18;3.80;;;;;;;;;;4961156;28;20031;-77
2023/06/16 02:13:57;;;;;;;4.75;3.80;;;;;;;;;;4977123;28;20085;-77
2023/06/16 02:16:23;;;;;;;7.13;4.05;;;;;;;;;;4960219;28;20047;-76
2023/06/16 02:18:53;;;;;;;6.78;4.05;;;;;;;;;;4975797;28;20023;-76
2023/06/16 02:21:19;;;;;;;6.88;3.95;;;;;;;;;;4977179;28;20027;-76
2023/06/16 02:23:44;;;;;;;5.18;3.88;;;;;;;;;;4976893;28;20106;-78
2023/06/16 02:26:10;;;;;;;5.57;3.97;;;;;;;;;;4977301;28;20057;-76
2023/06/16 02:28:35;;;;;;;5.40;3.70;;;;;;;;;;4977883;28;20389;-78
2023/06/16 02:31:00;;;;;;;7.60;3.97;;;;;;;;;;4978731;28;20066;-76
2023/06/16 02:33:27;;;;;;;5.97;3.67;;;;;;;;;;4978935;28;20264;-77
2023/06/16 02:35:52;;;;;;;7.60;4.68;;;;;;;;;;4979079;28;20256;-77
2023/06/16 02:38:17;;;;;;;7.27;4.27;;;;;;;;;;4975996;28;20034;-76
2023/06/16 02:40:42;;;;;;;5.93;3.83;;;;;;;;;;4959360;28;20274;-77
2023/06/16 02:43:08;;;;;;;6.93;3.97;;;;;;;;;;4976449;28;20277;-78
2023/06/16 02:45:33;;;;;;;7.57;4.20;;;;;;;;;;4976737;28;20070;-77
2023/06/16 02:47:58;;;;;;;6.30;3.90;;;;;;;;;;4976396;28;20264;-77
2023/06/16 02:50:23;;;;;;;6.13;3.90;;;;;;;;;;4976433;28;20279;-77
2023/06/16 02:52:49;;;;;;;7.57;4.10;;;;;;;;;;4976464;28;20253;-77
2023/06/16 02:55:15;;;;;;;5.47;3.85;;;;;;;;;;4976578;28;20035;-77
2023/06/16 02:57:41;;;;;;;5.97;4.45;;;;;;;;;;4976407;28;20054;-77
2023/06/16 03:00:09;;;;;;;5.57;3.90;;;;;;;;;;4959642;28;20031;-78
2023/06/16 03:02:35;;;;;;;5.55;4.13;;;;;;;;;;4979184;28;20397;-77
2023/06/16 03:05:03;;;;;;;7.15;4.28;;;;;;;;;;4977562;28;20106;-78
2023/06/16 03:07:31;;;;;;;7.43;3.90;;;;;;;;;;4976396;28;20034;-76
2023/06/16 03:09:56;;;;;;;5.40;4.13;;;;;;;;;;4976111;28;20037;-76
2023/06/16 03:12:22;;;;;;;7.65;3.80;;;;;;;;;;4976104;28;20023;-77
2023/06/16 03:14:47;;;;;;;7.90;4.22;;;;;;;;;;4958692;28;20106;-77
2023/06/16 03:17:13;;;;;;;12.67;4.37;;;;;;;;;;4958573;28;20034;-77
2023/06/16 03:19:38;;;;;;;8.15;3.75;;;;;;;;;;4976209;28;20284;-77
2023/06/16 03:22:04;;;;;;;11.53;4.50;;;;;;;;;;4958639;28;20030;-75
2023/06/16 03:24:33;;;;;;;6.07;4.45;;;;;;;;;;4975841;28;20280;-77
2023/06/16 03:26:58;;;;;;;6.07;3.65;;;;;;;;;;4976091;28;20058;-76
2023/06/16 03:29:23;;;;;;;10.18;4.18;;;;;;;;;;4976255;28;20019;-77
2023/06/16 03:31:48;;;;;;;5.80;4.13;;;;;;;;;;4976044;28;20026;-78
2023/06/16 03:34:14;;;;;;;7.73;4.40;;;;;;;;;;4977176;28;20260;-78
2023/06/16 03:36:40;;;;;;;9.20;4.00;;;;;;;;;;4977116;28;20348;-78
2023/06/16 03:39:05;;;;;;;11.23;4.20;;;;;;;;;;4976895;28;20284;-77
2023/06/16 03:41:33;;;;;;;7.38;4.40;;;;;;;;;;4975477;28;20038;-77
2023/06/16 03:43:58;;;;;;;6.30;4.07;;;;;;;;;;4975645;28;20109;-77
2023/06/16 03:46:24;;;;;;;5.30;3.70;;;;;;;;;;4975310;28;20101;-77
2023/06/16 03:48:49;;;;;;;8.15;4.22;;;;;;;;;;4976140;28;20027;-77
2023/06/16 03:51:16;;;;;;;7.78;4.20;;;;;;;;;;4979352;28;20054;-78
2023/06/16 03:53:41;;;;;;;4.82;3.70;;;;;;;;;;4977570;28;20109;-75
2023/06/16 03:56:07;;;;;;;7.80;4.50;;;;;;;;;;4975168;28;20474;-77
2023/06/16 03:58:32;;;;;;;6.97;4.13;;;;;;;;;;4975754;28;20030;-77
2023/06/16 04:00:57;;;;;;;5.28;3.70;;;;;;;;;;4974168;28;20078;-76
2023/06/16 04:03:25;;;;;;;7.22;4.25;;;;;;;;;;4957677;28;20026;-76
2023/06/16 04:05:51;;;;;;;6.28;4.35;;;;;;;;;;4975103;28;20560;-77
2023/06/16 04:08:16;;;;;;;6.78;4.45;;;;;;;;;;4975758;28;20073;-79
2023/06/16 04:10:41;;;;;;;6.13;4.20;;;;;;;;;;4975323;28;20022;-77
2023/06/16 04:13:06;;;;;;;12.77;4.23;;;;;;;;;;4974866;28;20310;-77
2023/06/16 04:15:32;;;;;;;12.43;4.50;;;;;;;;;;4957980;28;20261;-78
2023/06/16 04:17:57;;;;;;;9.95;4.70;;;;;;;;;;4975040;28;20260;-76
2023/06/16 04:20:22;;;;;;;7.77;4.40;;;;;;;;;;4975112;28;20037;-76
2023/06/16 04:22:47;;;;;;;7.95;4.40;;;;;;;;;;4974620;28;20284;-77
2023/06/16 04:25:13;;;;;;;8.27;4.13;;;;;;;;;;4975554;28;20450;-77
2023/06/16 04:27:38;;;;;;;6.95;4.18;;;;;;;;;;4957633;28;20636;-76
2023/06/16 04:30:05;;;;;;;7.65;4.45;;;;;;;;;;4974145;28;20039;-77
2023/06/16 04:32:34;;;;;;;8.85;4.22;;;;;;;;;;4974529;28;20027;-77
2023/06/16 04:35:03;;;;;;;8.85;4.30;;;;;;;;;;4974489;28;20138;-75
2023/06/16 04:37:28;;;;;;;6.63;3.80;;;;;;;;;;4974858;28;20035;-76
2023/06/16 04:39:56;;;;;;;7.32;4.25;;;;;;;;;;4974405;28;20033;-76
2023/06/16 04:42:22;;;;;;;8.32;4.43;;;;;;;;;;4974613;28;20482;-77
2023/06/16 04:44:47;;;;;;;6.63;4.40;;;;;;;;;;4974568;28;20121;-76
2023/06/16 04:47:12;;;;;;;9.17;4.70;;;;;;;;;;4974633;28;20292;-78
2023/06/16 04:49:38;;;;;;;11.63;4.53;;;;;;;;;;4976744;28;20252;-77
2023/06/16 04:52:06;;;;;;;6.00;4.32;;;;;;;;;;4960382;28;20089;-77
2023/06/16 04:54:31;;;;;;;5.40;4.38;;;;;;;;;;4977563;28;20029;-78
2023/06/16 04:56:56;;;;;;;7.90;4.33;;;;;;;;;;4978604;28;20054;-77
2023/06/16 04:59:31;;;;;;;7.97;4.07;;;;;;;;;;4961129;28;20264;-77
2023/06/16 05:01:57;;;;;;;5.78;4.32;;;;;;;;;;4975511;28;20026;-77
2023/06/16 05:04:22;;;;;;;5.72;3.70;;;;;;;;;;4961241;28;20038;-78
2023/06/16 05:06:48;;;;;;;8.43;4.07;;;;;;;;;;4979154;28;20034;-78
2023/06/16 05:09:13;;;;;;;8.68;4.13;;;;;;;;;;4978557;28;20300;-78
2023/06/16 05:11:38;;;;;;;6.53;4.27;;;;;;;;;;4975815;28;20042;-77
2023/06/16 05:14:03;;;;;;;8.20;4.43;;;;;;;;;;4974220;28;20265;-77
2023/06/16 05:16:29;;;;;;;6.78;4.50;;;;;;;;;;4976668;28;20271;-77
2023/06/16 05:18:54;;;;;;;7.40;4.20;;;;;;;;;;4978124;28;20090;-77
2023/06/16 05:21:24;;;;;;;9.35;4.50;;;;;;;;;;4977862;28;20291;-78
2023/06/16 05:23:53;;;;;;;10.30;4.68;;;;;;;;;;4977080;28;20037;-78
2023/06/16 05:26:19;;;;;;;7.43;4.20;;;;;;;;;;4976901;28;20094;-78
2023/06/16 05:28:45;;;;;;;6.90;3.90;;;;;;;;;;4977864;28;20027;-78
2023/06/16 05:31:10;;;;;;;7.40;4.37;;;;;;;;;;4977642;28;20034;-77
2023/06/16 05:33:36;;;;;;;9.53;3.97;;;;;;;;;;4978596;28;20252;-78
2023/06/16 05:36:03;;;;;;;6.97;4.25;;;;;;;;;;4977696;28;20276;-78
2023/06/16 05:38:29;;;;;;;7.45;4.22;;;;;;;;;;4976521;28;20027;-77
2023/06/16 05:40:54;;;;;;;6.57;3.90;;;;;;;;;;4977299;28;20033;-78
2023/06/16 05:43:19;;;;;;;7.70;3.97;;;;;;;;;;4977532;28;20285;-78
2023/06/16 05:45:44;;;;;;;6.50;4.35;;;;;;;;;;4977501;28;20271;-78
2023/06/16 05:48:10;;;;;;;6.93;4.15;;;;;;;;;;4959486;28;20031;-79
2023/06/16 05:50:35;;;;;;;5.78;4.45;;;;;;;;;;4976529;28;20062;-78
2023/06/16 05:53:00;;;;;;;8.67;4.50;;;;;;;;;;4975696;28;20459;-76
2023/06/16 05:55:26;;;;;;;8.05;4.25;;;;;;;;;;4975127;28;20267;-78
2023/06/16 05:57:51;;;;;;;7.60;4.05;;;;;;;;;;4976168;28;20034;-77
2023/06/16 06:00:17;;;;;;;5.77;4.13;;;;;;;;;;4958780;28;20091;-79
2023/06/16 06:02:42;;;;;;;6.85;4.13;;;;;;;;;;4977015;28;20291;-77
2023/06/16 06:05:07;;;;;;;11.02;4.22;;;;;;;;;;4976128;28;20023;-77
2023/06/16 06:07:33;;;;;;;10.85;4.78;;;;;;;;;;4975497;28;20027;-78
2023/06/16 06:09:58;;;;;;;6.97;4.10;;;;;;;;;;4977331;28;20033;-76
2023/06/16 06:12:23;;;;;;;7.40;4.27;;;;;;;;;;4975135;28;20308;-77
2023/06/16 06:14:48;;;;;;;10.57;4.43;;;;;;;;;;4980353;28;20265;-77
2023/06/16 06:17:14;;;;;;;6.85;4.30;;;;;;;;;;4980363;28;20268;-78
2023/06/16 06:19:39;;;;;;;4.67;3.73;;;;;;;;;;4977421;28;20022;-77
2023/06/16 06:22:04;;;;;;;5.95;3.33;;;;;;;;;;4979530;28;20256;-78
2023/06/16 06:24:29;;;;;;;5.88;3.20;;;;;;;;;;4978892;28;20034;-77
2023/06/16 06:26:57;;;;;;;6.67;3.60;;;;;;;;;;4981193;28;20023;-79
2023/06/16 06:29:22;;;;;;;6.50;3.45;;;;;;;;;;4977070;28;20253;-75
2023/06/16 06:31:47;;;;;;;8.37;4.30;;;;;;;;;;4976594;28;20406;-74
2023/06/16 06:34:12;;;;;;;4.73;3.50;;;;;;;;;;4959412;28;20643;-75
2023/06/16 06:36:39;;;;;;;5.95;3.53;;;;;;;;;;4976528;28;20624;-75
2023/06/16 06:39:04;;;;;;;6.47;4.00;;;;;;;;;;4976390;28;20034;-75
2023/06/16 06:41:29;;;;;;;8.00;3.67;;;;;;;;;;4976534;28;20031;-74
2023/06/16 06:43:54;;;;;;;9.70;3.80;;;;;;;;;;4976253;28;20218;-74
2023/06/16 06:46:20;;;;;;;7.88;3.78;;;;;;;;;;4976230;28;20300;-75
2023/06/16 06:48:48;;;;;;;7.38;3.72;;;;;;;;;;4976188;28;20023;-75
2023/06/16 06:51:13;;;;;;;11.35;3.60;;;;;;;;;;4976232;28;20553;-75
2023/06/16 06:53:39;;;;;;;7.78;3.75;;;;;;;;;;4976154;28;20050;-75
2023/06/16 06:56:05;;;;;;;5.43;3.58;;;;;;;;;;4975003;28;20442;-74
2023/06/16 06:58:31;;;;;;;6.82;3.35;;;;;;;;;;4976275;28;20034;-75
2023/06/16 07:00:56;;;;;;;7.78;3.50;;;;;;;;;;4976312;28;20397;-77
2023/06/16 07:03:21;;;;;;;8.95;3.72;;;;;;;;;;4976862;28;20026;-77
2023/06/16 07:05:47;;;;;;;10.07;3.90;;;;;;;;;;4976603;28;20030;-77
2023/06/16 07:08:12;;;;;;;7.07;3.72;;;;;;;;;;4977000;28;20267;-77
2023/06/16 07:10:37;;;;;;;5.07;3.20;;;;;;;;;;4976943;28;20058;-77
2023/06/16 07:13:02;;;;;;;5.90;3.75;;;;;;;;;;4978934;28;20261;-76
2023/06/16 07:15:28;;;;;;;9.53;3.80;;;;;;;;;;4976834;28;20379;-77
2023/06/16 07:17:53;;;;;;;8.43;3.72;;;;;;;;;;4975505;28;20698;-77
2023/06/16 07:20:18;;;;;;;8.23;3.53;;;;;;;;;;4976756;28;20031;-78
2023/06/16 07:22:45;;;;;;;5.32;3.50;;;;;;;;;;4977421;28;20295;-77
2023/06/16 07:25:11;;;;;;;8.02;4.00;;;;;;;;;;4959247;28;20050;-77
2023/06/16 07:27:36;;;;;;;6.50;3.65;;;;;;;;;;4976773;28;20058;-77
2023/06/16 07:30:04;;;;;;;7.40;3.97;;;;;;;;;;4976466;28;20027;-78
2023/06/16 07:32:29;;;;;;;5.32;3.92;;;;;;;;;;4975969;28;20292;-77
2023/06/16 07:34:55;;;;;;;8.27;4.20;;;;;;;;;;4979039;28;20023;-77
2023/06/16 07:37:20;;;;;;;9.53;4.13;;;;;;;;;;4977793;28;20054;-75
2023/06/16 07:39:45;;;;;;;10.50;3.72;;;;;;;;;;4976345;28;20268;-78
2023/06/16 07:42:11;;;;;;;4.87;3.47;;;;;;;;;;4959257;28;20026;-79
2023/06/16 07:44:36;;;;;;;12.77;3.67;;;;;;;;;;4975253;28;20352;-77
2023/06/16 07:47:01;;;;;;;6.40;3.80;;;;;;;;;;4978973;28;20026;-83
2023/06/16 07:49:28;;;;;;;5.53;3.97;;;;;;;;;;4962533;28;20038;-80
2023/06/16 07:51:53;;;;;;;13.85;4.25;;;;;;;;;;4978934;28;20035;-80
2023/06/16 07:54:18;;;;;;;6.53;3.80;;;;;;;;;;4979090;28;20014;-80
2023/06/16 07:56:44;;;;;;;8.18;3.90;;;;;;;;;;4978963;28;20332;-80
2023/06/16 07:59:09;;;;;;;6.47;3.95;;;;;;;;;;4977651;28;20351;-79
2023/06/16 08:01:34;;;;;;;9.80;4.30;;;;;;;;;;4979377;28;20106;-80
2023/06/16 08:04:02;;;;;;;6.90;4.50;;;;;;;;;;4978298;28;20314;-80
2023/06/16 08:06:28;;;;;;;6.75;3.60;;;;;;;;;;4977436;28;20038;-77
2023/06/16 08:08:53;;;;;;;5.57;3.75;;;;;;;;;;4976540;28;20031;-78
2023/06/16 08:11:19;;;;;;;5.90;3.60;;;;;;;;;;4978247;28;20044;-77
2023/06/16 08:13:45;;;;;;;6.30;3.78;;;;;;;;;;4975703;28;20066;-76
2023/06/16 08:16:11;;;;;;;6.57;3.58;;;;;;;;;;4975803;28;20034;-77
2023/06/16 08:18:36;;;;;;;7.00;3.67;;;;;;;;;;4979373;28;20112;-77
2023/06/16 08:21:01;;;;;;;6.90;3.50;;;;;;;;;;4980332;28;20043;-78
2023/06/16 08:23:26;;;;;;;6.43;3.90;;;;;;;;;;4975916;28;20037;-77
2023/06/16 08:25:53;;;;;;;8.57;3.80;;;;;;;;;;4958439;28;20257;-78
2023/06/16 08:28:19;;;;;;;7.85;3.90;;;;;;;;;;4976944;28;20256;-77
2023/06/16 08:30:45;;;;;;;5.95;3.72;;;;;;;;;;4958562;28;20022;-77
2023/06/16 08:33:10;;;;;;;5.90;3.65;;;;;;;;;;4977084;28;20470;-78
2023/06/16 08:35:35;;;;;;;9.07;3.80;;;;;;;;;;4975993;28;20110;-77
2023/06/16 08:38:00;;;;;;;7.90;4.07;;;;;;;;;;4976051;28;20704;-77
2023/06/16 08:40:26;;;;;;;5.30;3.58;;;;;;;;;;4975074;28;20260;-77
2023/06/16 08:42:53;;;;;;;8.60;4.03;;;;;;;;;;4973842;28;20070;-77
2023/06/16 08:45:20;;;;;;;6.50;3.47;;;;;;;;;;4973989;28;20315;-77
2023/06/16 08:47:45;;;;;;;9.73;4.00;;;;;;;;;;4974083;28;20023;-77
2023/06/16 08:50:12;;;;;;;6.75;4.15;;;;;;;;;;4974050;28;20097;-77
2023/06/16 08:52:40;;;;;;;7.97;3.85;;;;;;;;;;4956650;28;20036;-77
2023/06/16 08:55:12;;;;;;;11.05;4.05;;;;;;;;;;4973985;28;20034;-77
2023/06/16 08:57:46;;;;;;;5.05;3.88;;;;;;;;;;4956888;28;20037;-77
2023/06/16 09:00:13;;;;;;;6.15;3.47;;;;;;;;;;4974299;28;20034;-77
2023/06/16 09:02:39;;;;;;;4.70;3.33;;;;;;;;;;4974453;28;20034;-77
2023/06/16 09:05:04;;;;;;;6.15;3.88;;;;;;;;;;4972767;28;20027;-77
2023/06/16 09:07:30;;;;;;;5.45;3.50;;;;;;;;;;4974235;28;20486;-77
2023/06/16 09:09:55;;;;;;;7.47;3.60;;;;;;;;;;4975494;28;20030;-78
2023/06/16 09:12:21;;;;;;;7.07;4.00;;;;;;;;;;4978243;28;20030;-78
2023/06/16 09:14:49;;;;;;;12.02;4.13;;;;;;;;;;4977439;28;20442;-78
2023/06/16 09:17:18;;;;;;;5.47;3.30;;;;;;;;;;4978084;28;20073;-77
2023/06/16 09:19:47;;;;;;;8.05;3.85;;;;;;;;;;4960055;28;20117;-78
2023/06/16 09:22:18;;;;;;;7.63;2.95;;;;;;;;;;4960421;28;20063;-77
2023/06/16 09:24:54;;;;;;;6.82;2.88;;;;;;;;;;4977407;28;20031;-78
2023/06/16 09:27:20;;;;;;;4.25;2.80;;;;;;;;;;4977645;28;20023;-77
2023/06/16 09:29:50;;;;;;;4.38;2.20;;;;;;;;;;4960536;28;20520;-77
2023/06/16 09:32:15;;;;;;;6.10;2.60;;;;;;;;;;4977631;28;20030;-77
2023/06/16 09:34:43;;;;;;;7.93;2.58;;;;;;;;;;4974394;28;20015;-77
2023/06/16 09:37:12;;;;;;;5.30;2.50;;;;;;;;;;4957429;28;20029;-77
2023/06/16 09:39:38;;;;;;;5.80;2.92;;;;;;;;;;4974371;28;20031;-78
2023/06/16 09:42:03;;;;;;;5.85;2.90;;;;;;;;;;4974590;28;20034;-77
2023/06/16 09:44:30;;;;;;;4.70;2.80;;;;;;;;;;4974456;28;20418;-76
2023/06/16 09:46:58;;;;;;;3.70;2.80;;;;;;;;;;4973457;28;20406;-78
2023/06/16 09:49:25;;;;;;;6.60;3.17;;;;;;;;;;4979158;28;20065;-76
2023/06/16 09:51:54;;;;;;;6.70;2.97;;;;;;;;;;4960476;28;20528;-77
2023/06/16 09:54:21;;;;;;;6.57;2.88;;;;;;;;;;4978510;28;20031;-78
2023/06/16 09:56:46;;;;;;;2.90;2.45;;;;;;;;;;4977982;28;20027;-77
2023/06/16 09:59:11;;;;;;;4.78;2.28;;;;;;;;;;4981263;28;20038;-78
2023/06/16 10:01:40;;;;;;;2.57;2.20;;;;;;;;;;4980841;28;20039;-77
2023/06/16 10:04:08;;;;;;;2.72;2.10;;;;;;;;;;4961081;28;20283;-78
2023/06/16 10:06:36;;;;;;;4.57;2.55;;;;;;;;;;4977596;28;20375;-77
2023/06/16 10:09:01;;;;;;;3.28;2.25;;;;;;;;;;4978653;28;20494;-75
2023/06/16 10:11:29;;;;;;;3.85;2.65;;;;;;;;;;4977201;28;20087;-78
2023/06/16 10:13:58;;;;;;;4.35;2.60;;;;;;;;;;4979063;28;20055;-78
2023/06/16 10:16:27;;;;;;;4.75;2.60;;;;;;;;;;4963271;28;20035;-79
2023/06/16 10:18:57;;;;;;;11.68;2.60;;;;;;;;;;4979699;28;20041;-78
2023/06/16 10:21:23;;;;;;;3.60;2.35;;;;;;;;;;4978882;28;20027;-77
2023/06/16 10:23:49;;;;;;;3.45;2.35;;;;;;;;;;4974985;28;20161;-77
2023/06/16 10:26:15;;;;;;;5.20;2.72;;;;;;;;;;4976808;28;20110;-76
2023/06/16 10:28:41;;;;;;;6.47;2.40;;;;;;;;;;4976515;28;20031;-76
2023/06/16 10:31:11;;;;;;;5.97;2.42;;;;;;;;;;4958814;28;20026;-77
2023/06/16 10:33:57;;;;;;;4.63;1.45;;;;;;;;;;4975089;28;20406;-77
2023/06/16 10:36:36;;;;;;;2.28;2.08;;;;;;;;;;4977141;28;20022;-77
2023/06/16 10:39:07;;;;;;;6.25;2.53;;;;;;;;;;4977899;28;20027;-75
2023/06/16 10:41:33;;;;;;;5.57;2.65;;;;;;;;;;4979845;28;20388;-76
2023/06/16 10:44:23;;;;;;;4.28;2.88;;;;;;;;;;4977065;28;20027;-77
2023/06/16 10:47:10;;;;;;;4.90;2.92;;;;;;;;;;4976218;28;20385;-77
2023/06/16 10:50:02;;;;;;;4.85;2.72;;;;;;;;;;4978545;28;20105;-77
2023/06/16 10:52:27;;;;;;;3.13;2.60;;;;;;;;;;4958760;28;20027;-77
2023/06/16 10:54:54;;;;;;;5.63;2.67;;;;;;;;;;4977391;28;20015;-78
2023/06/16 10:57:20;;;;;;;4.28;2.50;;;;;;;;;;4978430;28;20038;-77
2023/06/16 11:00:07;;;;;;;4.38;2.80;;;;;;;;;;4979139;28;20030;-77
2023/06/16 11:02:35;;;;;;;4.03;2.60;;;;;;;;;;4979811;28;20031;-77
2023/06/16 11:05:10;;;;;;;4.13;2.72;;;;;;;;;;4978605;28;20403;-78
2023/06/16 11:08:05;;;;;;;4.85;2.78;;;;;;;;;;4978214;28;20105;-77
2023/06/16 11:10:46;;;;;;;8.20;3.03;;;;;;;;;;4978808;28;20023;-78
2023/06/16 11:13:13;;;;;;;7.38;3.17;;;;;;;;;;4961432;28;20050;-77
2023/06/16 11:15:39;;;;;;;6.82;3.10;;;;;;;;;;4978289;28;20047;-77
2023/06/16 11:18:05;;;;;;;5.75;2.88;;;;;;;;;;4978158;28;20031;-77
2023/06/16 11:20:30;;;;;;;5.15;3.17;;;;;;;;;;4978626;28;20022;-78
2023/06/16 11:22:56;;;;;;;6.20;3.00;;;;;;;;;;4977169;28;20031;-78
2023/06/16 11:25:21;;;;;;;6.30;3.00;;;;;;;;;;4961483;28;20261;-78
2023/06/16 11:27:46;;;;;;;5.07;3.30;;;;;;;;;;4978897;28;20437;-78
2023/06/16 11:30:12;;;;;;;3.70;2.60;;;;;;;;;;4981016;28;20267;-84
2023/06/16 11:32:37;;;;;;;5.70;2.90;;;;;;;;;;4981724;28;20299;-83
2023/06/16 11:35:03;;;;;;;4.45;3.10;;;;;;;;;;4980548;28;20319;-81
2023/06/16 11:37:50;;;;;;;5.72;3.38;;;;;;;;;;4963878;28;20471;-82
2023/06/16 11:40:22;;;;;;;6.80;3.40;;;;;;;;;;4963498;28;20058;-83
2023/06/16 11:43:02;;;;;;;3.80;2.83;;;;;;;;;;4981183;28;20034;-83
2023/06/16 11:45:30;;;;;;;6.32;2.72;;;;;;;;;;4981306;28;20027;-82
2023/06/16 11:47:57;;;;;;;3.55;2.20;;;;;;;;;;4981578;28;20049;-84
2023/06/16 11:50:23;;;;;;;3.03;2.40;;;;;;;;;;4980537;28;20165;-83
2023/06/16 11:52:50;;;;;;;4.30;2.70;;;;;;;;;;4981442;28;20077;-82
2023/06/16 11:55:15;;;;;;;3.13;2.50;;;;;;;;;;4964325;28;20049;-83
2023/06/16 11:57:40;;;;;;;5.00;2.40;;;;;;;;;;4982122;28;20482;-83
2023/06/16 12:00:08;;;;;;;3.95;2.10;;;;;;;;;;4980495;28;20393;-83
2023/06/16 12:02:34;;;;;;;5.53;2.42;;;;;;;;;;4979470;28;20018;-83
2023/06/16 12:05:01;;;;;;;4.80;2.30;;;;;;;;;;4979383;28;20035;-83
2023/06/16 12:07:26;;;;;;;5.60;2.38;;;;;;;;;;4979220;28;20490;-83
2023/06/16 12:09:56;;;;;;;4.53;2.70;;;;;;;;;;4961157;28;20489;-82
2023/06/16 12:12:25;;;;;;;4.90;2.42;;;;;;;;;;4979629;28;20034;-83
2023/06/16 12:14:50;;;;;;;4.40;2.30;;;;;;;;;;4979203;28;20429;-81
2023/06/16 12:17:16;;;;;;;2.80;2.20;;;;;;;;;;4978301;28;20034;-82
2023/06/16 12:19:41;;;;;;;2.63;1.97;;;;;;;;;;4977476;28;20081;-82
2023/06/16 12:22:06;;;;;;;3.95;2.05;;;;;;;;;;4979298;28;20382;-82
2023/06/16 12:24:31;;;;;;;3.60;2.17;;;;;;;;;;4961285;28;20034;-81
2023/06/16 12:26:57;;;;;;;3.23;1.83;;;;;;;;;;4961529;28;20050;-82
2023/06/16 12:29:26;;;;;;;3.72;2.30;;;;;;;;;;4978212;28;20260;-83
2023/06/16 12:31:53;;;;;;;3.90;2.58;;;;;;;;;;4961901;28;20077;-81
2023/06/16 12:34:26;;;;;;;3.85;2.50;;;;;;;;;;4961702;28;20018;-83
2023/06/16 12:36:53;;;;;;;3.22;2.58;;;;;;;;;;4978900;28;20097;-83
2023/06/16 12:39:20;;;;;;;4.15;2.33;;;;;;;;;;4961120;28;20042;-82
2023/06/16 12:41:56;;;;;;;3.42;2.50;;;;;;;;;;4977966;28;20030;-82
2023/06/16 12:44:22;;;;;;;4.90;2.78;;;;;;;;;;4961672;28;20059;-82
2023/06/16 12:46:47;;;;;;;3.20;2.58;;;;;;;;;;4979054;28;20031;-81
2023/06/16 12:49:12;;;;;;;3.93;2.67;;;;;;;;;;4978915;28;20031;-82
2023/06/16 12:51:37;;;;;;;5.80;2.67;;;;;;;;;;4978355;28;20272;-81
2023/06/16 12:54:03;;;;;;;8.80;3.10;;;;;;;;;;4978799;28;20037;-81
2023/06/16 12:56:28;;;;;;;3.73;2.67;;;;;;;;;;4978612;28;20280;-81
2023/06/16 12:58:53;;;;;;;3.53;2.47;;;;;;;;;;4979154;28;20826;-82
2023/06/16 13:01:19;;;;;;;3.13;2.40;;;;;;;;;;4979068;28;20034;-83
2023/06/16 13:03:46;;;;;;;3.20;2.40;;;;;;;;;;4984769;28;20303;-82
2023/06/16 13:06:13;;;;;;;3.72;2.60;;;;;;;;;;4980318;28;20034;-81
2023/06/16 13:08:41;;;;;;;3.88;2.47;;;;;;;;;;4977652;28;20030;-79
2023/06/16 13:11:06;;;;;;;4.95;2.40;;;;;;;;;;4975296;28;20371;-77
2023/06/16 13:13:31;;;;;;;4.78;2.50;;;;;;;;;;4975412;28;20026;-78
2023/06/16 13:15:56;;;;;;;4.82;2.38;;;;;;;;;;4975904;28;20126;-78
2023/06/16 13:18:22;;;;;;;2.97;2.30;;;;;;;;;;4976482;28;20034;-78
2023/06/16 13:20:48;;;;;;;3.03;2.50;;;;;;;;;;4974864;28;20601;-78
2023/06/16 13:23:13;;;;;;;2.67;2.20;;;;;;;;;;4979629;28;20114;-76
2023/06/16 13:25:39;;;;;;;3.28;2.60;;;;;;;;;;4978158;28;20513;-77
2023/06/16 13:28:04;;;;;;;3.65;2.60;;;;;;;;;;4960347;28;20061;-76
2023/06/16 13:30:29;;;;;;;4.38;2.80;;;;;;;;;;4977794;28;20020;-77
2023/06/16 13:32:54;;;;;;;4.22;2.60;;;;;;;;;;4960433;28;20556;-77
2023/06/16 13:35:20;;;;;;;4.00;2.77;;;;;;;;;;4978629;28;20026;-78
2023/06/16 13:37:46;;;;;;;4.57;2.60;;;;;;;;;;4977877;28;20275;-77
2023/06/16 13:40:12;;;;;;;6.82;2.50;;;;;;;;;;4981202;28;20515;-78
2023/06/16 13:42:37;;;;;;;10.40;2.78;;;;;;;;;;4986366;28;20066;-77
2023/06/16 13:45:02;;;;;;;5.55;2.75;;;;;;;;;;4982276;28;20402;-77
2023/06/16 13:47:28;;;;;;;4.78;2.90;;;;;;;;;;4979852;28;20078;-77
2023/06/16 13:49:53;;;;;;;3.83;2.90;;;;;;;;;;4982770;28;20482;-77
2023/06/16 13:52:18;;;;;;;4.20;2.93;;;;;;;;;;4978364;28;20758;-77
2023/06/16 13:54:43;;;;;;;11.00;2.60;;;;;;;;;;4977703;28;20712;-77
2023/06/16 13:57:09;;;;;;;3.63;2.80;;;;;;;;;;4977774;28;20034;-77
2023/06/16 13:59:34;;;;;;;3.75;2.50;;;;;;;;;;4960497;28;20027;-77
2023/06/16 14:02:00;;;;;;;4.33;2.70;;;;;;;;;;4977728;28;20402;-77
2023/06/16 14:04:25;;;;;;;4.67;2.90;;;;;;;;;;4977653;28;20684;-77
2023/06/16 14:06:50;;;;;;;4.75;2.75;;;;;;;;;;4978149;28;20640;-77
2023/06/16 14:09:16;;;;;;;6.20;2.80;;;;;;;;;;4978129;28;20484;-76
2023/06/16 14:11:41;;;;;;;5.68;2.90;;;;;;;;;;4977467;28;20755;-77
2023/06/16 14:14:06;;;;;;;1.60;1.20;;;;;;;;;;4977138;28;20023;-77
2023/06/16 14:16:34;;;;;;;4.32;1.55;;;;;;;;;;4977475;28;20311;-77
2023/06/16 14:19:01;;;;;;;3.53;2.10;;;;;;;;;;4977199;28;20167;-77
2023/06/16 14:21:26;;;;;;;2.60;2.22;;;;;;;;;;4976514;28;20058;-77
2023/06/16 14:23:51;;;;;;;5.43;2.60;;;;;;;;;;4958145;28;20022;-77
2023/06/16 14:26:17;;;;;;;5.60;2.90;;;;;;;;;;4976766;28;20307;-76
2023/06/16 14:28:42;;;;;;;4.20;2.45;;;;;;;;;;4958521;28;20260;-76
2023/06/16 14:31:09;;;;;;;5.27;3.03;;;;;;;;;;4976259;28;20157;-76
2023/06/16 14:33:34;;;;;;;8.02;4.07;;;;;;;;;;4976179;28;20249;-78
2023/06/16 14:35:59;;;;;;;5.40;3.17;;;;;;;;;;4976720;28;20061;-76
2023/06/16 14:38:25;;;;;;;5.07;3.37;;;;;;;;;;4976503;28;20262;-77
2023/06/16 14:40:50;;;;;;;5.23;2.93;;;;;;;;;;4976542;28;20272;-77